createdAt,value
2018-08-14T00:00:34.514Z,92.10
2018-08-14T00:01:37.911Z,92.20
2018-08-14T00:02:41.308Z,92.10
2018-08-14T00:03:44.703Z,92.10
2018-08-14T00:04:48.081Z,92.10
2018-08-14T00:05:52.682Z,92.20
2018-08-14T00:06:56.108Z,92.10
2018-08-14T00:07:59.515Z,92.20
2018-08-14T00:09:02.910Z,92.20
2018-08-14T00:10:08.463Z,92.20
2018-08-14T00:11:12.908Z,92.20
2018-08-14T00:12:16.315Z,92.20
2018-08-14T00:13:19.706Z,92.20
2018-08-14T00:14:23.103Z,92.20
2018-08-14T00:15:27.594Z,92.20
2018-08-14T00:16:30.999Z,92.20
2018-08-14T00:17:34.383Z,92.50
2018-08-14T00:18:37.783Z,92.30
2018-08-14T00:19:41.195Z,92.30
2018-08-14T00:20:45.718Z,92.20
2018-08-14T00:21:49.399Z,92.20
2018-08-14T00:22:53.172Z,92.30
2018-08-14T00:23:56.575Z,92.30
2018-08-14T00:24:59.959Z,92.30
2018-08-14T00:26:04.401Z,92.40
2018-08-14T00:27:08.004Z,92.40
2018-08-14T00:28:12.145Z,92.40
2018-08-14T00:29:15.544Z,92.40
2018-08-14T00:30:22.247Z,92.40
2018-08-14T00:31:27.191Z,92.40
2018-08-14T00:32:30.615Z,92.40
2018-08-14T00:33:34.011Z,92.40
2018-08-14T00:34:56.468Z,92.70
2018-08-14T00:36:00.905Z,92.40
2018-08-14T00:37:04.325Z,92.40
2018-08-14T00:38:08.211Z,92.50
2018-08-14T00:39:12.367Z,92.50
2018-08-14T00:40:19.355Z,92.50
2018-08-14T00:41:24.014Z,92.60
2018-08-14T00:42:27.437Z,92.60
2018-08-14T00:43:30.827Z,92.60
2018-08-14T00:44:34.232Z,92.70
2018-08-14T00:45:38.886Z,93.00
2018-08-14T00:46:42.304Z,92.80
2018-08-14T00:47:46.197Z,92.80
2018-08-14T00:48:49.611Z,92.90
2018-08-14T00:49:53.027Z,92.90
2018-08-14T00:50:58.247Z,93.00
2018-08-14T00:52:01.847Z,93.00
2018-08-14T00:53:05.249Z,93.00
2018-08-14T00:54:08.624Z,93.10
2018-08-14T00:55:14.004Z,93.10
2018-08-14T00:56:18.550Z,93.20
2018-08-14T00:57:21.940Z,93.20
2018-08-14T00:58:25.335Z,93.30
2018-08-14T00:59:28.711Z,93.30
2018-08-14T01:00:35.157Z,93.30
2018-08-14T01:01:38.556Z,93.30
2018-08-14T01:02:41.939Z,93.30
2018-08-14T01:03:45.323Z,93.30
2018-08-14T01:04:48.875Z,93.40
2018-08-14T01:05:53.449Z,93.40
2018-08-14T01:06:57.379Z,93.40
2018-08-14T01:08:00.755Z,93.40
2018-08-14T01:09:05.883Z,93.40
2018-08-14T01:10:13.280Z,93.40
2018-08-14T01:11:17.678Z,93.40
2018-08-14T01:12:21.083Z,93.40
2018-08-14T01:13:24.463Z,93.30
2018-08-14T01:14:27.838Z,93.30
2018-08-14T01:15:32.232Z,93.30
2018-08-14T01:16:35.662Z,93.30
2018-08-14T01:17:39.051Z,93.30
2018-08-14T01:18:42.439Z,93.30
2018-08-14T01:19:45.839Z,93.50
2018-08-14T01:20:52.025Z,93.30
2018-08-14T01:21:55.439Z,93.30
2018-08-14T01:22:58.882Z,93.30
2018-08-14T01:24:02.285Z,93.30
2018-08-14T01:25:06.860Z,93.20
2018-08-14T01:26:11.361Z,93.20
2018-08-14T01:27:14.791Z,93.20
2018-08-14T01:28:18.191Z,93.20
2018-08-14T01:29:21.563Z,93.20
2018-08-14T01:30:27.080Z,93.20
2018-08-14T01:31:30.827Z,93.30
2018-08-14T01:32:34.211Z,93.20
2018-08-14T01:33:37.583Z,93.40
2018-08-14T01:34:40.963Z,93.20
2018-08-14T01:35:45.569Z,93.10
2018-08-14T01:36:49.509Z,93.10
2018-08-14T01:37:52.879Z,93.10
2018-08-14T01:38:56.259Z,93.10
2018-08-14T01:39:59.639Z,93.00
2018-08-14T01:41:04.072Z,93.00
2018-08-14T01:42:07.519Z,93.10
2018-08-14T01:43:10.900Z,93.10
2018-08-14T01:44:14.350Z,93.10
2018-08-14T01:45:18.884Z,93.10
2018-08-14T01:46:23.183Z,93.10
2018-08-14T01:47:26.668Z,93.10
2018-08-14T01:48:30.095Z,93.10
2018-08-14T01:49:33.472Z,93.10
2018-08-14T01:50:37.917Z,93.10
2018-08-14T01:51:41.335Z,93.10
2018-08-14T01:52:44.926Z,93.10
2018-08-14T01:53:48.492Z,93.10
2018-08-14T01:54:51.867Z,93.20
2018-08-14T01:55:56.318Z,93.30
2018-08-14T01:56:59.714Z,93.50
2018-08-14T01:58:03.128Z,93.80
2018-08-14T01:59:07.114Z,94.00
2018-08-14T02:00:11.585Z,94.20
2018-08-14T02:01:16.074Z,94.40
2018-08-14T02:02:19.476Z,94.60
2018-08-14T02:03:22.895Z,94.70
2018-08-14T02:04:26.309Z,94.70
2018-08-14T02:05:30.823Z,94.80
2018-08-14T02:06:34.239Z,94.80
2018-08-14T02:07:38.015Z,94.80
2018-08-14T02:08:41.435Z,94.90
2018-08-14T02:09:46.019Z,94.90
2018-08-14T02:10:50.472Z,94.80
2018-08-14T02:11:53.875Z,94.80
2018-08-14T02:12:57.259Z,94.80
2018-08-14T02:14:00.666Z,94.80
2018-08-14T02:15:06.149Z,94.70
2018-08-14T02:16:10.622Z,94.80
2018-08-14T02:17:14.064Z,94.80
2018-08-14T02:18:17.444Z,95.10
2018-08-14T02:19:20.839Z,95.20
2018-08-14T02:20:25.470Z,95.30
2018-08-14T02:21:29.549Z,95.40
2018-08-14T02:22:32.923Z,95.50
2018-08-14T02:23:36.320Z,95.50
2018-08-14T02:24:39.734Z,95.60
2018-08-14T02:25:44.450Z,95.70
2018-08-14T02:26:47.875Z,95.70
2018-08-14T02:27:51.299Z,95.80
2018-08-14T02:28:54.683Z,95.80
2018-08-14T02:29:58.087Z,95.90
2018-08-14T02:31:02.620Z,96.00
2018-08-14T02:32:06.035Z,96.00
2018-08-14T02:33:09.415Z,96.00
2018-08-14T02:34:12.792Z,96.00
2018-08-14T02:35:17.171Z,96.00
2018-08-14T02:36:21.548Z,96.10
2018-08-14T02:37:24.960Z,96.10
2018-08-14T02:38:28.355Z,95.80
2018-08-14T02:39:31.739Z,96.00
2018-08-14T02:40:36.266Z,96.00
2018-08-14T02:41:39.744Z,96.30
2018-08-14T02:42:43.124Z,96.10
2018-08-14T02:43:46.560Z,96.20
2018-08-14T02:44:49.943Z,96.10
2018-08-14T02:45:54.427Z,96.10
2018-08-14T02:46:57.820Z,96.10
2018-08-14T02:48:01.204Z,96.00
2018-08-14T02:49:04.592Z,95.80
2018-08-14T02:50:10.049Z,95.70
2018-08-14T02:51:15.388Z,95.70
2018-08-14T02:52:18.804Z,95.80
2018-08-14T02:53:22.197Z,95.60
2018-08-14T02:54:25.631Z,95.60
2018-08-14T02:55:30.326Z,95.50
2018-08-14T02:56:33.767Z,95.50
2018-08-14T02:57:37.179Z,95.50
2018-08-14T02:58:40.568Z,95.70
2018-08-14T02:59:44.095Z,95.60
2018-08-14T03:00:48.975Z,95.60
2018-08-14T03:01:52.391Z,95.60
2018-08-14T03:02:56.407Z,95.60
2018-08-14T03:03:59.799Z,95.60
2018-08-14T03:05:03.566Z,95.60
2018-08-14T03:06:08.031Z,95.50
2018-08-14T03:07:11.454Z,95.50
2018-08-14T03:08:14.823Z,95.50
2018-08-14T03:09:18.219Z,95.50
2018-08-14T03:10:22.790Z,95.50
2018-08-14T03:11:27.193Z,95.50
2018-08-14T03:12:30.634Z,95.50
2018-08-14T03:13:34.007Z,95.50
2018-08-14T03:14:37.540Z,95.50
2018-08-14T03:15:42.079Z,95.50
2018-08-14T03:16:45.519Z,95.40
2018-08-14T03:17:51.704Z,95.40
2018-08-14T03:18:55.092Z,95.40
2018-08-14T03:19:59.087Z,95.30
2018-08-14T03:21:03.480Z,95.10
2018-08-14T03:22:06.894Z,95.10
2018-08-14T03:23:10.647Z,94.90
2018-08-14T03:24:14.044Z,95.00
2018-08-14T03:25:18.583Z,95.10
2018-08-14T03:26:23.562Z,94.90
2018-08-14T03:27:26.949Z,94.80
2018-08-14T03:28:30.371Z,94.90
2018-08-14T03:29:33.755Z,95.00
2018-08-14T03:30:38.231Z,94.90
2018-08-14T03:31:41.671Z,94.80
2018-08-14T03:32:45.085Z,95.00
2018-08-14T03:33:48.476Z,95.00
2018-08-14T03:34:51.873Z,95.00
2018-08-14T03:35:56.121Z,95.00
2018-08-14T03:36:59.511Z,94.80
2018-08-14T03:38:02.924Z,94.70
2018-08-14T03:39:09.655Z,94.70
2018-08-14T03:40:17.078Z,95.00
2018-08-14T03:41:22.260Z,94.70
2018-08-14T03:42:25.640Z,94.80
2018-08-14T03:43:29.023Z,94.70
2018-08-14T03:44:32.424Z,94.80
2018-08-14T03:45:38.053Z,94.90
2018-08-14T03:46:41.468Z,95.30
2018-08-14T03:47:45.327Z,95.30
2018-08-14T03:48:48.727Z,95.20
2018-08-14T03:49:52.129Z,95.20
2018-08-14T03:50:56.577Z,95.20
2018-08-14T03:51:59.987Z,95.20
2018-08-14T03:53:03.375Z,95.10
2018-08-14T03:54:06.759Z,94.90
2018-08-14T03:55:14.044Z,95.10
2018-08-14T03:56:18.585Z,94.90
2018-08-14T03:57:22.015Z,94.90
2018-08-14T03:58:25.398Z,95.00
2018-08-14T03:59:28.784Z,95.00
2018-08-14T04:00:33.760Z,95.00
2018-08-14T04:01:37.175Z,95.00
2018-08-14T04:02:40.559Z,95.10
2018-08-14T04:03:43.939Z,95.00
2018-08-14T04:04:47.319Z,95.20
2018-08-14T04:05:52.363Z,95.00
2018-08-14T04:06:55.784Z,95.00
2018-08-14T04:07:59.167Z,95.00
2018-08-14T04:09:02.716Z,95.00
2018-08-14T04:10:07.668Z,95.10
2018-08-14T04:11:12.284Z,94.90
2018-08-14T04:12:15.679Z,95.00
2018-08-14T04:13:19.063Z,95.00
2018-08-14T04:14:22.454Z,95.00
2018-08-14T04:15:26.985Z,95.00
2018-08-14T04:16:30.895Z,94.90
2018-08-14T04:17:34.276Z,94.70
2018-08-14T04:18:37.659Z,94.90
2018-08-14T04:19:41.043Z,94.90
2018-08-14T04:20:45.400Z,94.80
2018-08-14T04:21:48.867Z,94.80
2018-08-14T04:22:52.243Z,94.90
2018-08-14T04:23:55.635Z,95.10
2018-08-14T04:24:59.015Z,94.70
2018-08-14T04:26:03.530Z,94.70
2018-08-14T04:27:07.019Z,94.70
2018-08-14T04:28:10.393Z,94.80
2018-08-14T04:29:13.775Z,94.80
2018-08-14T04:30:18.266Z,94.80
2018-08-14T04:31:22.636Z,94.90
2018-08-14T04:32:26.084Z,94.80
2018-08-14T04:33:29.491Z,94.80
2018-08-14T04:34:32.871Z,94.90
2018-08-14T04:35:37.460Z,94.90
2018-08-14T04:36:40.870Z,94.90
2018-08-14T04:37:45.068Z,95.00
2018-08-14T04:38:48.447Z,95.00
2018-08-14T04:39:52.019Z,94.80
2018-08-14T04:40:56.534Z,94.80
2018-08-14T04:41:59.958Z,94.90
2018-08-14T04:43:03.362Z,95.00
2018-08-14T04:44:07.715Z,95.00
2018-08-14T04:45:12.078Z,94.90
2018-08-14T04:46:16.482Z,94.90
2018-08-14T04:47:20.132Z,94.90
2018-08-14T04:48:23.543Z,94.90
2018-08-14T04:49:26.931Z,94.90
2018-08-14T04:50:31.242Z,94.90
2018-08-14T04:51:34.695Z,95.00
2018-08-14T04:52:38.083Z,95.00
2018-08-14T04:53:41.506Z,95.00
2018-08-14T04:54:44.882Z,95.00
2018-08-14T04:55:50.236Z,94.90
2018-08-14T04:56:53.627Z,94.90
2018-08-14T04:57:57.015Z,95.00
2018-08-14T04:59:00.409Z,95.10
2018-08-14T05:00:05.924Z,95.00
2018-08-14T05:01:10.436Z,95.00
2018-08-14T05:02:13.843Z,95.00
2018-08-14T05:03:17.258Z,95.00
2018-08-14T05:04:20.639Z,95.00
2018-08-14T05:05:25.060Z,95.00
2018-08-14T05:06:29.163Z,95.00
2018-08-14T05:07:32.535Z,94.90
2018-08-14T05:08:35.918Z,94.90
2018-08-14T05:09:39.311Z,94.90
2018-08-14T05:10:43.845Z,94.90
2018-08-14T05:11:47.244Z,94.80
2018-08-14T05:12:50.627Z,94.80
2018-08-14T05:13:56.015Z,94.70
2018-08-14T05:14:59.434Z,94.70
2018-08-14T05:16:03.934Z,94.70
2018-08-14T05:17:07.402Z,94.80
2018-08-14T05:18:10.782Z,94.80
2018-08-14T05:19:14.175Z,94.80
2018-08-14T05:20:18.783Z,94.80
2018-08-14T05:21:23.049Z,94.80
2018-08-14T05:22:26.447Z,94.80
2018-08-14T05:23:29.866Z,94.80
2018-08-14T05:24:33.253Z,95.00
2018-08-14T05:25:37.720Z,94.80
2018-08-14T05:26:41.147Z,94.80
2018-08-14T05:27:44.535Z,94.70
2018-08-14T05:28:47.963Z,94.80
2018-08-14T05:29:51.363Z,94.70
2018-08-14T05:30:55.837Z,94.70
2018-08-14T05:31:59.239Z,94.80
2018-08-14T05:33:02.634Z,94.60
2018-08-14T05:34:06.031Z,94.60
2018-08-14T05:35:11.162Z,94.60
2018-08-14T05:36:15.719Z,94.60
2018-08-14T05:37:19.115Z,94.60
2018-08-14T05:38:22.510Z,94.60
2018-08-14T05:39:25.887Z,94.70
2018-08-14T05:40:30.350Z,94.70
2018-08-14T05:41:33.775Z,94.70
2018-08-14T05:42:37.293Z,94.70
2018-08-14T05:43:40.687Z,94.60
2018-08-14T05:44:44.064Z,94.70
2018-08-14T05:45:48.390Z,95.30
2018-08-14T05:46:51.824Z,95.90
2018-08-14T05:47:55.230Z,96.80
2018-08-14T05:48:58.618Z,97.00
2018-08-14T05:50:02.086Z,97.00
2018-08-14T05:51:06.498Z,97.20
2018-08-14T05:52:09.956Z,97.30
2018-08-14T05:53:13.343Z,97.50
2018-08-14T05:54:16.727Z,98.00
2018-08-14T05:55:21.187Z,98.00
2018-08-14T05:56:25.480Z,98.10
2018-08-14T05:57:28.915Z,98.20
2018-08-14T05:58:32.303Z,98.40
2018-08-14T05:59:35.679Z,98.50
2018-08-14T06:00:40.654Z,98.60
2018-08-14T06:01:44.195Z,98.60
2018-08-14T06:02:47.583Z,98.60
2018-08-14T06:03:51.042Z,98.70
2018-08-14T06:04:54.419Z,98.80
2018-08-14T06:05:58.982Z,98.80
2018-08-14T06:07:02.567Z,98.80
2018-08-14T06:08:06.035Z,98.80
2018-08-14T06:09:11.247Z,98.70
2018-08-14T06:10:15.657Z,98.80
2018-08-14T06:11:20.099Z,98.80
2018-08-14T06:12:23.504Z,98.80
2018-08-14T06:13:26.975Z,98.80
2018-08-14T06:14:30.415Z,98.80
2018-08-14T06:15:34.894Z,98.90
2018-08-14T06:16:38.430Z,98.90
2018-08-14T06:17:41.879Z,98.90
2018-08-14T06:18:45.319Z,98.80
2018-08-14T06:19:48.712Z,98.90
2018-08-14T06:20:53.024Z,99.00
2018-08-14T06:21:56.435Z,98.90
2018-08-14T06:22:59.907Z,98.80
2018-08-14T06:24:03.367Z,98.80
2018-08-14T06:25:07.997Z,98.90
2018-08-14T06:26:12.454Z,98.90
2018-08-14T06:27:15.903Z,99.10
2018-08-14T06:28:19.316Z,99.00
2018-08-14T06:29:22.699Z,99.00
2018-08-14T06:30:27.225Z,98.90
2018-08-14T06:31:30.870Z,99.00
2018-08-14T06:32:34.287Z,99.40
2018-08-14T06:33:37.703Z,99.20
2018-08-14T06:34:41.100Z,99.10
2018-08-14T06:35:45.644Z,99.00
2018-08-14T06:36:49.052Z,99.00
2018-08-14T06:37:52.435Z,99.10
2018-08-14T06:38:55.853Z,99.30
2018-08-14T06:39:59.258Z,99.20
2018-08-14T06:41:04.420Z,99.20
2018-08-14T06:42:07.840Z,99.20
2018-08-14T06:43:11.230Z,99.20
2018-08-14T06:44:14.647Z,99.20
2018-08-14T06:45:19.571Z,99.20
2018-08-14T06:46:23.788Z,99.10
2018-08-14T06:47:27.170Z,99.20
2018-08-14T06:48:30.797Z,99.20
2018-08-14T06:49:34.183Z,99.20
2018-08-14T06:50:38.433Z,99.10
2018-08-14T06:51:41.838Z,99.00
2018-08-14T06:52:45.426Z,99.00
2018-08-14T06:53:48.827Z,99.00
2018-08-14T06:54:52.219Z,99.10
2018-08-14T06:55:56.565Z,99.10
2018-08-14T06:56:59.965Z,99.10
2018-08-14T06:58:07.864Z,99.10
2018-08-14T06:59:11.297Z,99.10
2018-08-14T07:00:17.922Z,99.10
2018-08-14T07:01:22.358Z,99.00
2018-08-14T07:02:25.759Z,99.00
2018-08-14T07:03:29.164Z,99.00
2018-08-14T07:04:32.547Z,99.10
2018-08-14T07:05:37.194Z,99.10
2018-08-14T07:06:40.625Z,99.30
2018-08-14T07:07:44.174Z,99.30
2018-08-14T07:08:47.589Z,99.30
2018-08-14T07:09:51.171Z,99.30
2018-08-14T07:10:55.807Z,99.30
2018-08-14T07:11:59.209Z,99.30
2018-08-14T07:13:02.588Z,99.30
2018-08-14T07:14:07.907Z,99.60
2018-08-14T07:15:17.304Z,99.50
2018-08-14T07:16:21.799Z,99.50
2018-08-14T07:17:25.283Z,99.50
2018-08-14T07:18:28.684Z,99.50
2018-08-14T07:19:32.063Z,99.40
2018-08-14T07:20:36.455Z,99.40
2018-08-14T07:21:39.871Z,99.30
2018-08-14T07:22:44.087Z,99.30
2018-08-14T07:23:47.497Z,99.30
2018-08-14T07:24:50.922Z,99.30
2018-08-14T07:25:57.803Z,99.50
2018-08-14T07:27:01.371Z,99.20
2018-08-14T07:28:04.975Z,99.30
2018-08-14T07:29:08.383Z,99.30
2018-08-14T07:30:15.184Z,99.40
2018-08-14T07:31:20.415Z,99.30
2018-08-14T07:32:23.834Z,99.40
2018-08-14T07:33:27.243Z,99.50
2018-08-14T07:34:30.679Z,99.50
2018-08-14T07:35:35.099Z,99.20
2018-08-14T07:36:38.533Z,99.30
2018-08-14T07:37:42.800Z,99.30
2018-08-14T07:38:46.183Z,99.20
2018-08-14T07:39:49.639Z,99.30
2018-08-14T07:40:53.991Z,99.20
2018-08-14T07:41:57.463Z,99.10
2018-08-14T07:43:00.851Z,99.00
2018-08-14T07:44:04.247Z,99.00
2018-08-14T07:45:11.190Z,99.00
2018-08-14T07:46:16.408Z,99.20
2018-08-14T07:47:19.819Z,99.30
2018-08-14T07:48:23.207Z,99.30
2018-08-14T07:49:26.610Z,99.50
2018-08-14T07:50:31.313Z,99.50
2018-08-14T07:51:34.731Z,99.40
2018-08-14T07:52:38.659Z,99.40
2018-08-14T07:53:42.055Z,99.40
2018-08-14T07:54:45.471Z,99.30
2018-08-14T07:55:50.030Z,99.20
2018-08-14T07:56:53.456Z,99.20
2018-08-14T07:57:56.908Z,99.40
2018-08-14T07:59:00.255Z,99.40
2018-08-14T08:00:06.012Z,99.30
2018-08-14T08:01:10.530Z,99.10
2018-08-14T08:02:13.950Z,99.00
2018-08-14T08:03:17.336Z,99.00
2018-08-14T08:04:20.719Z,99.00
2018-08-14T08:05:25.215Z,99.10
2018-08-14T08:06:29.679Z,99.20
2018-08-14T08:07:33.079Z,99.00
2018-08-14T08:08:36.511Z,99.10
2018-08-14T08:09:39.914Z,99.10
2018-08-14T08:10:44.446Z,99.20
2018-08-14T08:11:47.905Z,99.10
2018-08-14T08:12:51.300Z,99.20
2018-08-14T08:13:54.707Z,99.20
2018-08-14T08:14:58.100Z,99.30
2018-08-14T08:16:03.201Z,99.40
2018-08-14T08:17:06.789Z,99.20
2018-08-14T08:18:10.239Z,99.00
2018-08-14T08:19:13.643Z,99.00
2018-08-14T08:20:34.541Z,99.10
2018-08-14T08:21:37.982Z,99.20
2018-08-14T08:22:41.438Z,99.20
2018-08-14T08:23:44.907Z,99.30
2018-08-14T08:24:48.295Z,99.40
2018-08-14T08:25:52.928Z,99.50
2018-08-14T08:26:56.412Z,99.50
2018-08-14T08:28:00.283Z,99.50
2018-08-14T08:29:03.745Z,99.50
2018-08-14T08:30:08.386Z,99.60
2018-08-14T08:31:13.029Z,99.60
2018-08-14T08:32:16.488Z,99.60
2018-08-14T08:33:19.895Z,99.70
2018-08-14T08:34:23.323Z,99.70
2018-08-14T08:35:28.348Z,99.70
2018-08-14T08:36:31.787Z,99.80
2018-08-14T08:37:35.220Z,99.80
2018-08-14T08:38:38.611Z,99.90
2018-08-14T08:39:42.053Z,99.90
2018-08-14T08:40:46.750Z,99.90
2018-08-14T08:41:50.206Z,99.90
2018-08-14T08:42:53.600Z,99.90
2018-08-14T08:43:57.211Z,99.90
2018-08-14T08:45:00.613Z,99.90
2018-08-14T08:46:05.992Z,99.90
2018-08-14T08:47:09.419Z,99.90
2018-08-14T08:48:14.467Z,99.90
2018-08-14T08:49:17.896Z,99.90
2018-08-14T08:50:22.280Z,99.90
2018-08-14T08:51:27.567Z,99.90
2018-08-14T08:52:30.951Z,99.90
2018-08-14T08:53:34.356Z,99.90
2018-08-14T08:54:37.771Z,99.90
2018-08-14T08:55:42.162Z,99.90
2018-08-14T08:56:45.567Z,99.90
2018-08-14T08:57:48.971Z,99.70
2018-08-14T08:58:52.388Z,99.70
2018-08-14T08:59:55.795Z,99.60
2018-08-14T09:01:00.285Z,99.70
2018-08-14T09:02:03.695Z,99.80
2018-08-14T09:03:07.107Z,99.60
2018-08-14T09:04:10.536Z,98.80
2018-08-14T09:05:17.925Z,98.40
2018-08-14T09:06:22.346Z,98.70
2018-08-14T09:07:25.723Z,98.90
2018-08-14T09:08:29.439Z,98.60
2018-08-14T09:09:32.855Z,99.20
2018-08-14T09:10:37.266Z,98.70
2018-08-14T09:11:40.713Z,98.60
2018-08-14T09:12:44.107Z,98.50
2018-08-14T09:13:47.512Z,98.20
2018-08-14T09:14:50.927Z,98.20
2018-08-14T09:15:55.470Z,98.20
2018-08-14T09:16:58.951Z,97.70
2018-08-14T09:18:02.411Z,97.70
2018-08-14T09:19:06.252Z,97.70
2018-08-14T09:20:12.922Z,98.00
2018-08-14T09:21:17.460Z,97.60
2018-08-14T09:22:20.878Z,97.70
2018-08-14T09:23:24.276Z,97.50
2018-08-14T09:24:27.663Z,97.10
2018-08-14T09:25:32.130Z,96.90
2018-08-14T09:26:35.538Z,96.60
2018-08-14T09:27:39.283Z,96.30
2018-08-14T09:28:42.663Z,96.40
2018-08-14T09:29:46.049Z,96.50
2018-08-14T09:30:50.501Z,96.60
2018-08-14T09:31:53.923Z,96.10
2018-08-14T09:32:57.335Z,96.10
2018-08-14T09:34:00.752Z,96.30
2018-08-14T09:35:05.374Z,96.10
2018-08-14T09:36:09.820Z,96.30
2018-08-14T09:37:13.223Z,96.20
2018-08-14T09:38:16.612Z,96.00
2018-08-14T09:39:20.045Z,96.00
2018-08-14T09:40:24.364Z,96.00
2018-08-14T09:41:28.919Z,96.20
2018-08-14T09:42:32.371Z,95.90
2018-08-14T09:43:35.772Z,95.80
2018-08-14T09:44:39.409Z,95.90
2018-08-14T09:45:44.001Z,96.00
2018-08-14T09:46:47.503Z,95.70
2018-08-14T09:47:51.147Z,95.70
2018-08-14T09:48:54.547Z,95.60
2018-08-14T09:49:57.931Z,95.60
2018-08-14T09:51:02.406Z,95.30
2018-08-14T09:52:05.871Z,95.10
2018-08-14T09:53:09.307Z,95.20
2018-08-14T09:54:12.690Z,94.90
2018-08-14T09:55:18.049Z,95.00
2018-08-14T09:56:22.518Z,94.60
2018-08-14T09:57:25.995Z,94.50
2018-08-14T09:58:29.451Z,94.40
2018-08-14T09:59:32.843Z,94.80
2018-08-14T10:00:42.218Z,94.60
2018-08-14T10:01:50.904Z,94.60
2018-08-14T10:02:59.591Z,94.60
2018-08-14T10:04:10.247Z,94.60
2018-08-14T10:05:19.956Z,94.10
2018-08-14T10:06:28.967Z,94.50
2018-08-14T10:07:37.675Z,94.50
2018-08-14T10:08:41.103Z,94.80
2018-08-14T10:09:44.535Z,95.00
2018-08-14T10:10:49.046Z,95.10
2018-08-14T10:11:52.467Z,95.00
2018-08-14T10:12:55.971Z,95.00
2018-08-14T10:13:59.351Z,95.10
2018-08-14T10:15:02.777Z,95.10
2018-08-14T10:16:07.358Z,95.20
2018-08-14T10:17:16.485Z,94.80
2018-08-14T10:18:22.011Z,94.40
2018-08-14T10:19:25.399Z,94.60
2018-08-14T10:20:30.771Z,94.50
2018-08-14T10:21:34.232Z,94.40
2018-08-14T10:22:37.656Z,94.20
2018-08-14T10:23:41.036Z,94.30
2018-08-14T10:24:44.427Z,94.00
2018-08-14T10:25:48.746Z,93.90
2018-08-14T10:26:52.256Z,93.90
2018-08-14T10:27:55.635Z,94.00
2018-08-14T10:28:59.150Z,94.20
2018-08-14T10:30:03.047Z,93.70
2018-08-14T10:31:07.475Z,93.90
2018-08-14T10:32:10.876Z,94.00
2018-08-14T10:33:14.307Z,94.00
2018-08-14T10:34:17.696Z,94.10
2018-08-14T10:35:22.065Z,94.20
2018-08-14T10:36:26.645Z,94.00
2018-08-14T10:37:30.067Z,94.00
2018-08-14T10:38:33.575Z,94.10
2018-08-14T10:39:36.964Z,94.00
2018-08-14T10:40:41.525Z,93.90
2018-08-14T10:41:44.940Z,93.80
2018-08-14T10:42:48.331Z,93.50
2018-08-14T10:43:51.719Z,93.60
2018-08-14T10:44:55.107Z,93.30
2018-08-14T10:45:59.722Z,93.10
2018-08-14T10:47:03.088Z,93.20
2018-08-14T10:48:06.528Z,93.40
2018-08-14T10:49:09.919Z,93.10
2018-08-14T10:50:16.943Z,93.20
2018-08-14T10:51:21.341Z,93.40
2018-08-14T10:52:24.757Z,93.30
2018-08-14T10:53:28.155Z,93.20
2018-08-14T10:54:31.535Z,93.10
2018-08-14T10:55:35.927Z,93.00
2018-08-14T10:56:39.334Z,93.20
2018-08-14T10:57:42.837Z,93.10
2018-08-14T10:58:46.294Z,93.10
2018-08-14T10:59:49.675Z,93.10
2018-08-14T11:00:54.105Z,92.70
2018-08-14T11:01:57.528Z,92.40
2018-08-14T11:03:00.967Z,92.30
2018-08-14T11:04:04.367Z,91.90
2018-08-14T11:05:08.792Z,91.50
2018-08-14T11:06:13.240Z,91.40
2018-08-14T11:07:16.671Z,91.20
2018-08-14T11:08:20.063Z,91.10
2018-08-14T11:09:23.611Z,90.80
2018-08-14T11:10:30.712Z,90.30
2018-08-14T11:11:38.360Z,90.20
2018-08-14T11:12:41.739Z,90.10
2018-08-14T11:13:45.142Z,90.10
2018-08-14T11:14:48.532Z,90.00
2018-08-14T11:15:53.829Z,89.90
2018-08-14T11:16:57.235Z,89.90
2018-08-14T11:18:00.667Z,90.10
2018-08-14T11:19:04.068Z,90.00
2018-08-14T11:20:10.777Z,89.60
2018-08-14T11:21:15.340Z,89.60
2018-08-14T11:22:18.763Z,89.80
2018-08-14T11:23:22.146Z,90.00
2018-08-14T11:24:25.578Z,89.70
2018-08-14T11:25:29.942Z,88.60
2018-08-14T11:26:33.378Z,88.00
2018-08-14T11:27:36.999Z,87.90
2018-08-14T11:28:40.375Z,87.20
2018-08-14T11:29:43.783Z,87.30
2018-08-14T11:30:48.214Z,87.40
2018-08-14T11:31:51.643Z,87.60
2018-08-14T11:32:55.499Z,87.50
2018-08-14T11:33:58.907Z,87.10
2018-08-14T11:35:02.363Z,87.20
2018-08-14T11:36:07.397Z,86.80
2018-08-14T11:37:10.835Z,86.00
2018-08-14T11:38:14.219Z,84.60
2018-08-14T11:39:17.607Z,84.40
2018-08-14T11:40:22.105Z,84.80
2018-08-14T11:41:26.357Z,84.50
2018-08-14T11:42:29.836Z,83.90
2018-08-14T11:43:33.256Z,83.60
2018-08-14T11:44:36.631Z,84.30
2018-08-14T11:45:41.144Z,84.80
2018-08-14T11:46:44.559Z,84.70
2018-08-14T11:47:48.183Z,83.70
2018-08-14T11:48:51.563Z,83.50
2018-08-14T11:49:54.983Z,83.60
2018-08-14T11:50:59.576Z,83.00
2018-08-14T11:52:02.996Z,82.20
2018-08-14T11:53:06.380Z,82.30
2018-08-14T11:54:09.779Z,82.50
2018-08-14T11:55:15.083Z,82.80
2018-08-14T11:56:20.464Z,81.60
2018-08-14T11:57:23.917Z,81.80
2018-08-14T11:58:27.275Z,81.70
2018-08-14T11:59:30.672Z,81.20
2018-08-14T12:00:35.005Z,81.30
2018-08-14T12:01:38.495Z,80.40
2018-08-14T12:02:42.651Z,79.50
2018-08-14T12:03:46.049Z,78.60
2018-08-14T12:04:49.445Z,78.20
2018-08-14T12:05:53.816Z,77.90
2018-08-14T12:06:57.279Z,78.30
2018-08-14T12:08:00.648Z,78.50
2018-08-14T12:09:06.835Z,77.90
2018-08-14T12:10:12.264Z,77.60
2018-08-14T12:11:16.701Z,77.20
2018-08-14T12:12:20.184Z,77.20
2018-08-14T12:13:23.575Z,77.70
2018-08-14T12:14:27.001Z,77.40
2018-08-14T12:15:31.579Z,77.40
2018-08-14T12:16:35.041Z,75.80
2018-08-14T12:17:38.423Z,75.00
2018-08-14T12:18:41.832Z,75.60
2018-08-14T12:19:45.227Z,76.10
2018-08-14T12:20:49.636Z,76.10
2018-08-14T12:21:53.067Z,76.20
2018-08-14T12:22:56.456Z,77.00
2018-08-14T12:23:59.887Z,76.30
2018-08-14T12:25:03.457Z,76.30
2018-08-14T12:26:07.834Z,76.50
2018-08-14T12:27:11.252Z,76.00
2018-08-14T12:28:14.658Z,75.70
2018-08-14T12:29:18.247Z,75.30
2018-08-14T12:30:24.009Z,75.40
2018-08-14T12:31:28.432Z,75.40
2018-08-14T12:32:31.881Z,75.30
2018-08-14T12:33:35.263Z,74.30
2018-08-14T12:34:38.688Z,74.50
2018-08-14T12:35:43.158Z,74.40
2018-08-14T12:36:46.599Z,74.50
2018-08-14T12:37:50.183Z,74.70
2018-08-14T12:38:53.575Z,74.30
2018-08-14T12:39:56.983Z,75.00
2018-08-14T12:41:01.957Z,74.70
2018-08-14T12:42:05.400Z,74.80
2018-08-14T12:43:08.827Z,75.80
2018-08-14T12:44:12.216Z,75.50
2018-08-14T12:45:19.574Z,74.90
2018-08-14T12:46:23.773Z,74.80
2018-08-14T12:47:27.239Z,74.40
2018-08-14T12:48:30.843Z,74.20
2018-08-14T12:49:34.359Z,73.50
2018-08-14T12:50:38.717Z,73.90
2018-08-14T12:51:42.135Z,74.40
2018-08-14T12:52:45.571Z,75.00
2018-08-14T12:53:48.952Z,74.50
2018-08-14T12:54:52.343Z,74.60
2018-08-14T12:55:57.443Z,74.50
2018-08-14T12:57:00.868Z,74.10
2018-08-14T12:58:04.311Z,74.00
2018-08-14T12:59:07.700Z,74.10
2018-08-14T13:00:29.099Z,73.10
2018-08-14T13:01:32.561Z,72.80
2018-08-14T13:02:35.955Z,73.00
2018-08-14T13:03:39.337Z,73.10
2018-08-14T13:04:42.713Z,73.40
2018-08-14T13:05:46.887Z,73.30
2018-08-14T13:06:50.543Z,73.30
2018-08-14T13:07:54.458Z,72.70
2018-08-14T13:08:57.902Z,71.80
2018-08-14T13:10:01.311Z,71.70
2018-08-14T13:11:06.472Z,71.80
2018-08-14T13:12:09.905Z,71.90
2018-08-14T13:13:13.307Z,72.20
2018-08-14T13:14:16.687Z,72.40
2018-08-14T13:15:21.164Z,72.50
2018-08-14T13:16:24.799Z,72.60
2018-08-14T13:17:29.175Z,72.70
2018-08-14T13:18:32.636Z,72.80
2018-08-14T13:19:36.099Z,72.60
2018-08-14T13:20:40.603Z,72.30
2018-08-14T13:21:44.399Z,72.50
2018-08-14T13:22:47.795Z,72.80
2018-08-14T13:23:51.203Z,73.00
2018-08-14T13:24:54.589Z,72.80
2018-08-14T13:25:59.044Z,72.90
2018-08-14T13:27:02.476Z,72.20
2018-08-14T13:28:06.412Z,72.70
2018-08-14T13:29:09.823Z,72.80
2018-08-14T13:30:14.321Z,72.80
2018-08-14T13:31:19.203Z,73.00
2018-08-14T13:32:22.683Z,73.00
2018-08-14T13:33:26.068Z,73.10
2018-08-14T13:34:29.471Z,72.90
2018-08-14T13:35:34.790Z,73.20
2018-08-14T13:36:38.219Z,72.30
2018-08-14T13:37:41.647Z,72.30
2018-08-14T13:38:45.196Z,72.00
2018-08-14T13:39:48.597Z,72.10
2018-08-14T13:40:52.988Z,72.20
2018-08-14T13:41:56.400Z,72.40
2018-08-14T13:42:59.783Z,72.60
2018-08-14T13:44:03.467Z,72.60